sensor_id;sensor_type;location;lat;lon;timestamp;P1;durP1;ratioP1;P2;durP2;ratioP2
2053;SDS011;1032;52.542;13.440;2022-11-24T00:01:09;108.93;;;52.63;;
2053;SDS011;1032;52.542;13.440;2022-11-24T00:03:39;112.28;;;50.75;;
2053;SDS011;1032;52.542;13.440;2022-11-24T00:06:07;112.55;;;51.85;;
2053;SDS011;1032;52.542;13.440;2022-11-24T00:08:35;137.45;;;53.15;;
2053;SDS011;1032;52.542;13.440;2022-11-24T00:11:03;111.88;;;51.47;;
2053;SDS011;1032;52.542;13.440;2022-11-24T00:13:31;90.50;;;50.13;;
2053;SDS011;1032;52.542;13.440;2022-11-24T00:16:05;85.93;;;49.85;;
2053;SDS011;1032;52.542;13.440;2022-11-24T00:18:35;103.57;;;51.92;;
2053;SDS011;1032;52.542;13.440;2022-11-24T00:21:02;94.00;;;51.42;;
2053;SDS011;1032;52.542;13.440;2022-11-24T00:23:28;99.60;;;51.22;;
2053;SDS011;1032;52.542;13.440;2022-11-24T00:26:01;104.75;;;51.10;;
2053;SDS011;1032;52.542;13.440;2022-11-24T00:28:28;94.10;;;53.03;;
2053;SDS011;1032;52.542;13.440;2022-11-24T00:30:55;92.30;;;53.28;;
2053;SDS011;1032;52.542;13.440;2022-11-24T00:33:22;89.15;;;53.08;;
2053;SDS011;1032;52.542;13.440;2022-11-24T00:35:53;85.90;;;52.88;;
2053;SDS011;1032;52.542;13.440;2022-11-24T00:38:21;90.85;;;53.47;;
2053;SDS011;1032;52.542;13.440;2022-11-24T00:40:48;96.18;;;51.80;;
2053;SDS011;1032;52.542;13.440;2022-11-24T00:43:14;101.88;;;53.03;;
2053;SDS011;1032;52.542;13.440;2022-11-24T00:45:41;82.47;;;50.10;;
2053;SDS011;1032;52.542;13.440;2022-11-24T00:48:07;92.05;;;52.47;;
2053;SDS011;1032;52.542;13.440;2022-11-24T00:50:34;94.97;;;50.75;;
2053;SDS011;1032;52.542;13.440;2022-11-24T00:53:02;114.57;;;52.63;;
2053;SDS011;1032;52.542;13.440;2022-11-24T00:55:29;85.43;;;48.72;;
2053;SDS011;1032;52.542;13.440;2022-11-24T00:57:55;92.68;;;52.15;;
2053;SDS011;1032;52.542;13.440;2022-11-24T01:00:22;93.28;;;52.35;;
2053;SDS011;1032;52.542;13.440;2022-11-24T01:02:48;96.05;;;51.03;;
2053;SDS011;1032;52.542;13.440;2022-11-24T01:05:15;92.70;;;51.50;;
2053;SDS011;1032;52.542;13.440;2022-11-24T01:07:42;89.43;;;53.00;;
2053;SDS011;1032;52.542;13.440;2022-11-24T01:10:10;87.63;;;51.90;;
2053;SDS011;1032;52.542;13.440;2022-11-24T01:12:36;80.15;;;50.45;;
2053;SDS011;1032;52.542;13.440;2022-11-24T01:15:03;90.60;;;51.42;;
2053;SDS011;1032;52.542;13.440;2022-11-24T01:17:30;95.50;;;54.08;;
2053;SDS011;1032;52.542;13.440;2022-11-24T01:19:57;86.53;;;53.30;;
2053;SDS011;1032;52.542;13.440;2022-11-24T01:22:23;90.75;;;51.42;;
2053;SDS011;1032;52.542;13.440;2022-11-24T01:24:51;92.65;;;52.28;;
2053;SDS011;1032;52.542;13.440;2022-11-24T01:27:19;99.50;;;53.33;;
2053;SDS011;1032;52.542;13.440;2022-11-24T01:29:45;85.53;;;53.78;;
2053;SDS011;1032;52.542;13.440;2022-11-24T01:32:12;98.43;;;52.33;;
2053;SDS011;1032;52.542;13.440;2022-11-24T01:34:38;98.65;;;52.08;;
2053;SDS011;1032;52.542;13.440;2022-11-24T01:37:05;93.50;;;52.28;;
2053;SDS011;1032;52.542;13.440;2022-11-24T01:39:32;104.07;;;50.75;;
2053;SDS011;1032;52.542;13.440;2022-11-24T01:41:59;94.97;;;50.90;;
2053;SDS011;1032;52.542;13.440;2022-11-24T01:44:28;90.57;;;51.42;;
2053;SDS011;1032;52.542;13.440;2022-11-24T01:46:56;86.78;;;49.22;;
2053;SDS011;1032;52.542;13.440;2022-11-24T01:49:26;76.88;;;48.47;;
2053;SDS011;1032;52.542;13.440;2022-11-24T01:52:03;84.00;;;48.90;;
2053;SDS011;1032;52.542;13.440;2022-11-24T01:54:34;86.50;;;45.72;;
2053;SDS011;1032;52.542;13.440;2022-11-24T01:57:04;80.00;;;45.45;;
2053;SDS011;1032;52.542;13.440;2022-11-24T01:59:36;80.78;;;46.55;;
2053;SDS011;1032;52.542;13.440;2022-11-24T02:02:03;84.13;;;47.83;;
2053;SDS011;1032;52.542;13.440;2022-11-24T02:04:30;81.85;;;48.53;;
2053;SDS011;1032;52.542;13.440;2022-11-24T02:06:59;80.57;;;46.05;;
2053;SDS011;1032;52.542;13.440;2022-11-24T02:09:28;95.57;;;48.78;;
2053;SDS011;1032;52.542;13.440;2022-11-24T02:12:01;74.13;;;46.25;;
2053;SDS011;1032;52.542;13.440;2022-11-24T02:14:28;89.65;;;49.42;;
2053;SDS011;1032;52.542;13.440;2022-11-24T02:16:56;81.88;;;46.30;;
2053;SDS011;1032;52.542;13.440;2022-11-24T02:19:26;73.57;;;45.65;;
2053;SDS011;1032;52.542;13.440;2022-11-24T02:22:02;92.28;;;48.85;;
2053;SDS011;1032;52.542;13.440;2022-11-24T02:24:31;72.72;;;46.35;;
2053;SDS011;1032;52.542;13.440;2022-11-24T02:27:04;101.78;;;48.10;;
2053;SDS011;1032;52.542;13.440;2022-11-24T02:29:31;82.75;;;45.40;;
2053;SDS011;1032;52.542;13.440;2022-11-24T02:31:59;77.70;;;45.60;;
2053;SDS011;1032;52.542;13.440;2022-11-24T02:34:29;80.85;;;44.08;;
2053;SDS011;1032;52.542;13.440;2022-11-24T02:36:56;80.18;;;43.58;;
2053;SDS011;1032;52.542;13.440;2022-11-24T02:39:23;74.90;;;45.88;;
2053;SDS011;1032;52.542;13.440;2022-11-24T02:41:50;97.10;;;49.03;;
2053;SDS011;1032;52.542;13.440;2022-11-24T02:44:21;72.90;;;43.42;;
2053;SDS011;1032;52.542;13.440;2022-11-24T02:47:00;81.35;;;43.60;;
2053;SDS011;1032;52.542;13.440;2022-11-24T02:49:27;77.32;;;42.08;;
2053;SDS011;1032;52.542;13.440;2022-11-24T02:51:54;76.15;;;44.97;;
2053;SDS011;1032;52.542;13.440;2022-11-24T02:54:20;72.75;;;44.45;;
2053;SDS011;1032;52.542;13.440;2022-11-24T02:56:47;73.78;;;44.03;;
2053;SDS011;1032;52.542;13.440;2022-11-24T02:59:14;91.25;;;46.17;;
2053;SDS011;1032;52.542;13.440;2022-11-24T03:01:42;85.10;;;45.95;;
2053;SDS011;1032;52.542;13.440;2022-11-24T03:04:08;90.47;;;44.55;;
2053;SDS011;1032;52.542;13.440;2022-11-24T03:06:35;89.50;;;45.60;;
2053;SDS011;1032;52.542;13.440;2022-11-24T03:09:02;94.55;;;46.75;;
2053;SDS011;1032;52.542;13.440;2022-11-24T03:11:28;79.65;;;42.50;;
2053;SDS011;1032;52.542;13.440;2022-11-24T03:13:55;80.88;;;44.08;;
2053;SDS011;1032;52.542;13.440;2022-11-24T03:16:21;78.28;;;42.95;;
2053;SDS011;1032;52.542;13.440;2022-11-24T03:18:50;78.70;;;41.47;;
2053;SDS011;1032;52.542;13.440;2022-11-24T03:21:17;72.68;;;43.17;;
2053;SDS011;1032;52.542;13.440;2022-11-24T03:23:44;73.60;;;42.20;;
2053;SDS011;1032;52.542;13.440;2022-11-24T03:26:12;71.82;;;42.78;;
2053;SDS011;1032;52.542;13.440;2022-11-24T03:28:40;73.07;;;44.35;;
2053;SDS011;1032;52.542;13.440;2022-11-24T03:31:07;71.95;;;42.85;;
2053;SDS011;1032;52.542;13.440;2022-11-24T03:33:35;74.20;;;43.92;;
2053;SDS011;1032;52.542;13.440;2022-11-24T03:36:03;75.22;;;43.08;;
2053;SDS011;1032;52.542;13.440;2022-11-24T03:38:31;88.18;;;43.30;;
2053;SDS011;1032;52.542;13.440;2022-11-24T03:40:58;68.95;;;41.25;;
2053;SDS011;1032;52.542;13.440;2022-11-24T03:43:24;70.45;;;40.85;;
2053;SDS011;1032;52.542;13.440;2022-11-24T03:45:51;72.97;;;42.25;;
2053;SDS011;1032;52.542;13.440;2022-11-24T03:48:18;74.05;;;40.33;;
2053;SDS011;1032;52.542;13.440;2022-11-24T03:50:51;76.25;;;39.88;;
2053;SDS011;1032;52.542;13.440;2022-11-24T03:53:20;71.18;;;39.35;;
2053;SDS011;1032;52.542;13.440;2022-11-24T03:55:47;70.45;;;38.67;;
2053;SDS011;1032;52.542;13.440;2022-11-24T03:58:13;65.75;;;38.40;;
2053;SDS011;1032;52.542;13.440;2022-11-24T04:00:40;63.28;;;37.83;;
2053;SDS011;1032;52.542;13.440;2022-11-24T04:03:07;76.82;;;41.78;;
2053;SDS011;1032;52.542;13.440;2022-11-24T04:05:33;72.32;;;41.25;;
2053;SDS011;1032;52.542;13.440;2022-11-24T04:08:01;72.32;;;40.90;;
2053;SDS011;1032;52.542;13.440;2022-11-24T04:10:30;64.20;;;40.55;;
2053;SDS011;1032;52.542;13.440;2022-11-24T04:12:59;65.90;;;38.53;;
2053;SDS011;1032;52.542;13.440;2022-11-24T04:15:25;68.53;;;38.93;;
2053;SDS011;1032;52.542;13.440;2022-11-24T04:17:53;65.55;;;40.25;;
2053;SDS011;1032;52.542;13.440;2022-11-24T04:20:20;77.30;;;40.28;;
2053;SDS011;1032;52.542;13.440;2022-11-24T04:22:48;63.90;;;37.83;;
2053;SDS011;1032;52.542;13.440;2022-11-24T04:25:15;69.95;;;38.85;;
2053;SDS011;1032;52.542;13.440;2022-11-24T04:27:43;70.95;;;40.78;;
2053;SDS011;1032;52.542;13.440;2022-11-24T04:30:10;69.55;;;40.22;;
2053;SDS011;1032;52.542;13.440;2022-11-24T04:32:37;72.68;;;39.53;;
2053;SDS011;1032;52.542;13.440;2022-11-24T04:35:04;69.03;;;40.20;;
2053;SDS011;1032;52.542;13.440;2022-11-24T04:37:31;74.68;;;39.72;;
2053;SDS011;1032;52.542;13.440;2022-11-24T04:39:59;58.78;;;37.50;;
2053;SDS011;1032;52.542;13.440;2022-11-24T04:42:25;61.50;;;37.92;;
2053;SDS011;1032;52.542;13.440;2022-11-24T04:44:53;62.67;;;36.95;;
2053;SDS011;1032;52.542;13.440;2022-11-24T04:47:20;60.03;;;36.22;;
2053;SDS011;1032;52.542;13.440;2022-11-24T04:49:49;66.43;;;37.10;;
2053;SDS011;1032;52.542;13.440;2022-11-24T04:52:16;65.90;;;38.13;;
2053;SDS011;1032;52.542;13.440;2022-11-24T04:54:44;68.38;;;37.95;;
2053;SDS011;1032;52.542;13.440;2022-11-24T04:57:12;73.60;;;37.42;;
2053;SDS011;1032;52.542;13.440;2022-11-24T04:59:41;65.40;;;38.95;;
2053;SDS011;1032;52.542;13.440;2022-11-24T05:02:09;68.00;;;37.03;;
2053;SDS011;1032;52.542;13.440;2022-11-24T05:04:36;65.10;;;38.22;;
2053;SDS011;1032;52.542;13.440;2022-11-24T05:07:03;63.50;;;37.70;;
2053;SDS011;1032;52.542;13.440;2022-11-24T05:09:30;64.50;;;36.63;;
2053;SDS011;1032;52.542;13.440;2022-11-24T05:11:56;63.28;;;38.00;;
2053;SDS011;1032;52.542;13.440;2022-11-24T05:14:23;61.53;;;35.50;;
2053;SDS011;1032;52.542;13.440;2022-11-24T05:16:50;59.72;;;34.42;;
2053;SDS011;1032;52.542;13.440;2022-11-24T05:19:18;58.05;;;34.53;;
2053;SDS011;1032;52.542;13.440;2022-11-24T05:21:44;63.03;;;35.58;;
2053;SDS011;1032;52.542;13.440;2022-11-24T05:24:11;60.33;;;36.65;;
2053;SDS011;1032;52.542;13.440;2022-11-24T05:26:38;61.88;;;36.35;;
2053;SDS011;1032;52.542;13.440;2022-11-24T05:29:04;65.00;;;36.58;;
2053;SDS011;1032;52.542;13.440;2022-11-24T05:31:31;70.10;;;37.22;;
2053;SDS011;1032;52.542;13.440;2022-11-24T05:33:57;65.75;;;36.15;;
2053;SDS011;1032;52.542;13.440;2022-11-24T05:36:25;61.92;;;35.22;;
2053;SDS011;1032;52.542;13.440;2022-11-24T05:39:09;71.47;;;35.83;;
2053;SDS011;1032;52.542;13.440;2022-11-24T05:41:36;67.95;;;37.63;;
2053;SDS011;1032;52.542;13.440;2022-11-24T05:44:02;66.07;;;36.63;;
2053;SDS011;1032;52.542;13.440;2022-11-24T05:46:29;63.78;;;36.13;;
2053;SDS011;1032;52.542;13.440;2022-11-24T05:48:56;65.88;;;33.15;;
2053;SDS011;1032;52.542;13.440;2022-11-24T05:51:22;61.50;;;36.08;;
2053;SDS011;1032;52.542;13.440;2022-11-24T05:53:50;60.10;;;35.53;;
2053;SDS011;1032;52.542;13.440;2022-11-24T05:56:17;55.30;;;34.22;;
2053;SDS011;1032;52.542;13.440;2022-11-24T05:58:43;63.65;;;36.25;;
2053;SDS011;1032;52.542;13.440;2022-11-24T06:01:10;57.30;;;35.38;;
2053;SDS011;1032;52.542;13.440;2022-11-24T06:03:37;58.72;;;33.10;;
2053;SDS011;1032;52.542;13.440;2022-11-24T06:06:03;48.50;;;30.35;;
2053;SDS011;1032;52.542;13.440;2022-11-24T06:08:30;58.67;;;31.77;;
2053;SDS011;1032;52.542;13.440;2022-11-24T06:10:59;55.92;;;32.55;;
2053;SDS011;1032;52.542;13.440;2022-11-24T06:13:41;56.88;;;32.92;;
2053;SDS011;1032;52.542;13.440;2022-11-24T06:16:07;63.25;;;34.42;;
2053;SDS011;1032;52.542;13.440;2022-11-24T06:18:34;53.38;;;31.63;;
2053;SDS011;1032;52.542;13.440;2022-11-24T06:21:01;52.58;;;31.33;;
2053;SDS011;1032;52.542;13.440;2022-11-24T06:23:27;52.83;;;31.63;;
2053;SDS011;1032;52.542;13.440;2022-11-24T06:25:55;61.53;;;32.03;;
2053;SDS011;1032;52.542;13.440;2022-11-24T06:28:23;52.25;;;31.02;;
2053;SDS011;1032;52.542;13.440;2022-11-24T06:30:50;60.70;;;34.15;;
2053;SDS011;1032;52.542;13.440;2022-11-24T06:33:17;57.80;;;32.88;;
2053;SDS011;1032;52.542;13.440;2022-11-24T06:35:43;63.83;;;33.33;;
2053;SDS011;1032;52.542;13.440;2022-11-24T06:38:10;49.28;;;30.75;;
2053;SDS011;1032;52.542;13.440;2022-11-24T06:40:37;65.18;;;32.78;;
2053;SDS011;1032;52.542;13.440;2022-11-24T06:43:03;71.53;;;32.90;;
2053;SDS011;1032;52.542;13.440;2022-11-24T06:45:31;58.17;;;32.08;;
2053;SDS011;1032;52.542;13.440;2022-11-24T06:47:59;65.45;;;33.58;;
2053;SDS011;1032;52.542;13.440;2022-11-24T06:50:25;52.00;;;30.35;;
2053;SDS011;1032;52.542;13.440;2022-11-24T06:52:53;60.10;;;32.83;;
2053;SDS011;1032;52.542;13.440;2022-11-24T06:55:19;54.63;;;31.20;;
2053;SDS011;1032;52.542;13.440;2022-11-24T06:57:46;72.13;;;35.85;;
2053;SDS011;1032;52.542;13.440;2022-11-24T07:00:13;62.40;;;33.60;;
2053;SDS011;1032;52.542;13.440;2022-11-24T07:02:41;62.88;;;33.15;;
2053;SDS011;1032;52.542;13.440;2022-11-24T07:05:08;51.67;;;31.40;;
2053;SDS011;1032;52.542;13.440;2022-11-24T07:07:35;56.33;;;31.33;;
2053;SDS011;1032;52.542;13.440;2022-11-24T07:10:01;56.63;;;33.08;;
2053;SDS011;1032;52.542;13.440;2022-11-24T07:12:32;55.05;;;30.55;;
2053;SDS011;1032;52.542;13.440;2022-11-24T07:14:59;52.25;;;30.17;;
2053;SDS011;1032;52.542;13.440;2022-11-24T07:17:25;54.65;;;30.40;;
2053;SDS011;1032;52.542;13.440;2022-11-24T07:19:53;48.10;;;31.08;;
2053;SDS011;1032;52.542;13.440;2022-11-24T07:22:20;52.40;;;31.73;;
2053;SDS011;1032;52.542;13.440;2022-11-24T07:24:46;49.97;;;30.30;;
2053;SDS011;1032;52.542;13.440;2022-11-24T07:27:13;49.75;;;28.98;;
2053;SDS011;1032;52.542;13.440;2022-11-24T07:29:39;48.40;;;29.42;;
2053;SDS011;1032;52.542;13.440;2022-11-24T07:32:06;53.22;;;30.98;;
2053;SDS011;1032;52.542;13.440;2022-11-24T07:34:32;57.75;;;31.58;;
2053;SDS011;1032;52.542;13.440;2022-11-24T07:37:01;52.50;;;33.50;;
2053;SDS011;1032;52.542;13.440;2022-11-24T07:39:27;47.53;;;30.95;;
2053;SDS011;1032;52.542;13.440;2022-11-24T07:41:54;50.95;;;31.92;;
2053;SDS011;1032;52.542;13.440;2022-11-24T07:44:20;51.33;;;30.92;;
2053;SDS011;1032;52.542;13.440;2022-11-24T07:46:47;45.13;;;29.77;;
2053;SDS011;1032;52.542;13.440;2022-11-24T07:49:15;47.45;;;28.13;;
2053;SDS011;1032;52.542;13.440;2022-11-24T07:51:41;48.85;;;30.80;;
2053;SDS011;1032;52.542;13.440;2022-11-24T07:54:09;50.05;;;29.75;;
2053;SDS011;1032;52.542;13.440;2022-11-24T07:56:36;47.95;;;31.60;;
2053;SDS011;1032;52.542;13.440;2022-11-24T07:59:03;53.65;;;33.03;;
2053;SDS011;1032;52.542;13.440;2022-11-24T08:01:30;50.28;;;30.50;;
2053;SDS011;1032;52.542;13.440;2022-11-24T08:03:56;52.55;;;30.55;;
2053;SDS011;1032;52.542;13.440;2022-11-24T08:06:23;47.88;;;31.15;;
2053;SDS011;1032;52.542;13.440;2022-11-24T08:08:49;49.63;;;30.52;;
2053;SDS011;1032;52.542;13.440;2022-11-24T08:11:17;47.58;;;28.55;;
2053;SDS011;1032;52.542;13.440;2022-11-24T08:13:44;45.45;;;28.20;;
2053;SDS011;1032;52.542;13.440;2022-11-24T08:16:11;48.97;;;32.03;;
2053;SDS011;1032;52.542;13.440;2022-11-24T08:18:39;58.53;;;36.10;;
2053;SDS011;1032;52.542;13.440;2022-11-24T08:21:07;48.47;;;31.23;;
2053;SDS011;1032;52.542;13.440;2022-11-24T08:23:36;53.25;;;32.15;;
2053;SDS011;1032;52.542;13.440;2022-11-24T08:26:03;51.47;;;31.48;;
2053;SDS011;1032;52.542;13.440;2022-11-24T08:28:34;57.83;;;32.80;;
2053;SDS011;1032;52.542;13.440;2022-11-24T08:31:02;49.17;;;32.42;;
2053;SDS011;1032;52.542;13.440;2022-11-24T08:33:30;49.88;;;31.38;;
2053;SDS011;1032;52.542;13.440;2022-11-24T08:36:01;54.05;;;32.33;;
2053;SDS011;1032;52.542;13.440;2022-11-24T08:38:28;61.20;;;31.63;;
2053;SDS011;1032;52.542;13.440;2022-11-24T08:40:58;52.58;;;32.47;;
2053;SDS011;1032;52.542;13.440;2022-11-24T08:43:25;50.08;;;31.70;;
2053;SDS011;1032;52.542;13.440;2022-11-24T08:45:57;57.67;;;32.83;;
2053;SDS011;1032;52.542;13.440;2022-11-24T08:48:24;48.58;;;32.08;;
2053;SDS011;1032;52.542;13.440;2022-11-24T08:50:51;46.58;;;29.80;;
2053;SDS011;1032;52.542;13.440;2022-11-24T08:53:18;43.10;;;29.33;;
2053;SDS011;1032;52.542;13.440;2022-11-24T08:55:44;45.42;;;29.75;;
2053;SDS011;1032;52.542;13.440;2022-11-24T08:58:11;41.38;;;27.85;;
2053;SDS011;1032;52.542;13.440;2022-11-24T09:00:37;40.67;;;29.27;;
2053;SDS011;1032;52.542;13.440;2022-11-24T09:03:05;45.33;;;29.95;;
2053;SDS011;1032;52.542;13.440;2022-11-24T09:05:32;46.15;;;30.10;;
2053;SDS011;1032;52.542;13.440;2022-11-24T09:07:59;42.78;;;28.73;;
2053;SDS011;1032;52.542;13.440;2022-11-24T09:10:25;45.70;;;30.83;;
2053;SDS011;1032;52.542;13.440;2022-11-24T09:12:52;41.90;;;29.77;;
2053;SDS011;1032;52.542;13.440;2022-11-24T09:15:18;44.80;;;29.42;;
2053;SDS011;1032;52.542;13.440;2022-11-24T09:17:45;39.28;;;28.10;;
2053;SDS011;1032;52.542;13.440;2022-11-24T09:20:13;40.22;;;28.30;;
2053;SDS011;1032;52.542;13.440;2022-11-24T09:22:40;47.40;;;30.67;;
2053;SDS011;1032;52.542;13.440;2022-11-24T09:25:07;41.63;;;28.57;;
2053;SDS011;1032;52.542;13.440;2022-11-24T09:27:34;41.63;;;29.63;;
2053;SDS011;1032;52.542;13.440;2022-11-24T09:30:02;47.40;;;33.17;;
2053;SDS011;1032;52.542;13.440;2022-11-24T09:32:29;43.90;;;29.60;;
2053;SDS011;1032;52.542;13.440;2022-11-24T09:34:55;44.65;;;30.65;;
2053;SDS011;1032;52.542;13.440;2022-11-24T09:37:24;49.90;;;34.05;;
2053;SDS011;1032;52.542;13.440;2022-11-24T09:39:51;52.10;;;32.35;;
2053;SDS011;1032;52.542;13.440;2022-11-24T09:42:18;42.33;;;28.80;;
2053;SDS011;1032;52.542;13.440;2022-11-24T09:45:13;45.40;;;31.23;;
2053;SDS011;1032;52.542;13.440;2022-11-24T09:47:47;44.42;;;29.45;;
2053;SDS011;1032;52.542;13.440;2022-11-24T09:50:21;48.53;;;32.03;;
2053;SDS011;1032;52.542;13.440;2022-11-24T09:52:52;43.20;;;29.73;;
2053;SDS011;1032;52.542;13.440;2022-11-24T09:55:27;44.77;;;30.23;;
2053;SDS011;1032;52.542;13.440;2022-11-24T09:58:09;44.13;;;31.95;;
2053;SDS011;1032;52.542;13.440;2022-11-24T10:00:47;45.42;;;32.00;;
2053;SDS011;1032;52.542;13.440;2022-11-24T10:03:19;51.57;;;31.43;;
2053;SDS011;1032;52.542;13.440;2022-11-24T10:05:50;57.15;;;36.17;;
2053;SDS011;1032;52.542;13.440;2022-11-24T10:08:26;52.25;;;35.13;;
2053;SDS011;1032;52.542;13.440;2022-11-24T10:11:05;50.17;;;33.20;;
2053;SDS011;1032;52.542;13.440;2022-11-24T10:13:42;50.73;;;33.63;;
2053;SDS011;1032;52.542;13.440;2022-11-24T10:16:27;48.53;;;32.93;;
2053;SDS011;1032;52.542;13.440;2022-11-24T10:19:05;47.17;;;33.17;;
2053;SDS011;1032;52.542;13.440;2022-11-24T10:21:43;49.45;;;34.40;;
2053;SDS011;1032;52.542;13.440;2022-11-24T10:24:25;48.17;;;33.10;;
2053;SDS011;1032;52.542;13.440;2022-11-24T10:27:18;48.28;;;33.50;;
2053;SDS011;1032;52.542;13.440;2022-11-24T10:29:49;44.00;;;32.07;;
2053;SDS011;1032;52.542;13.440;2022-11-24T10:32:19;45.67;;;30.53;;
2053;SDS011;1032;52.542;13.440;2022-11-24T10:34:49;43.30;;;31.33;;
2053;SDS011;1032;52.542;13.440;2022-11-24T10:37:17;42.37;;;31.37;;
2053;SDS011;1032;52.542;13.440;2022-11-24T10:39:51;38.53;;;27.90;;
2053;SDS011;1032;52.542;13.440;2022-11-24T10:42:25;43.37;;;29.57;;
2053;SDS011;1032;52.542;13.440;2022-11-24T10:44:59;47.07;;;29.63;;
2053;SDS011;1032;52.542;13.440;2022-11-24T10:47:27;37.40;;;28.60;;
2053;SDS011;1032;52.542;13.440;2022-11-24T10:49:56;38.03;;;27.63;;
2053;SDS011;1032;52.542;13.440;2022-11-24T10:52:25;41.90;;;29.10;;
2053;SDS011;1032;52.542;13.440;2022-11-24T10:54:56;35.40;;;28.90;;
2053;SDS011;1032;52.542;13.440;2022-11-24T10:57:26;39.67;;;28.17;;
2053;SDS011;1032;52.542;13.440;2022-11-24T10:59:54;43.43;;;28.03;;
2053;SDS011;1032;52.542;13.440;2022-11-24T11:02:25;41.80;;;28.70;;
2053;SDS011;1032;52.542;13.440;2022-11-24T11:07:51;45.77;;;30.80;;
2053;SDS011;1032;52.542;13.440;2022-11-24T11:10:41;35.53;;;27.97;;
2053;SDS011;1032;52.542;13.440;2022-11-24T11:13:21;44.37;;;30.40;;
2053;SDS011;1032;52.542;13.440;2022-11-24T11:15:49;36.70;;;27.77;;
2053;SDS011;1032;52.542;13.440;2022-11-24T11:18:17;40.67;;;29.73;;
2053;SDS011;1032;52.542;13.440;2022-11-24T11:20:48;39.33;;;28.87;;
2053;SDS011;1032;52.542;13.440;2022-11-24T11:23:21;41.03;;;30.87;;
2053;SDS011;1032;52.542;13.440;2022-11-24T11:28:56;42.90;;;29.37;;
2053;SDS011;1032;52.542;13.440;2022-11-24T11:31:25;39.97;;;29.60;;
2053;SDS011;1032;52.542;13.440;2022-11-24T11:33:54;35.73;;;28.40;;
2053;SDS011;1032;52.542;13.440;2022-11-24T11:36:22;37.17;;;28.80;;
2053;SDS011;1032;52.542;13.440;2022-11-24T11:38:50;36.03;;;27.47;;
2053;SDS011;1032;52.542;13.440;2022-11-24T11:41:19;40.67;;;30.83;;
2053;SDS011;1032;52.542;13.440;2022-11-24T11:43:52;38.77;;;29.70;;
2053;SDS011;1032;52.542;13.440;2022-11-24T11:46:25;40.70;;;29.80;;
2053;SDS011;1032;52.542;13.440;2022-11-24T11:48:56;40.67;;;28.73;;
2053;SDS011;1032;52.542;13.440;2022-11-24T11:51:25;38.10;;;29.10;;
2053;SDS011;1032;52.542;13.440;2022-11-24T11:54:01;39.30;;;29.23;;
2053;SDS011;1032;52.542;13.440;2022-11-24T11:56:36;37.83;;;29.03;;
2053;SDS011;1032;52.542;13.440;2022-11-24T11:59:12;39.60;;;28.47;;
2053;SDS011;1032;52.542;13.440;2022-11-24T12:02:10;38.30;;;28.93;;
2053;SDS011;1032;52.542;13.440;2022-11-24T12:04:54;40.87;;;29.60;;
2053;SDS011;1032;52.542;13.440;2022-11-24T12:07:31;41.60;;;31.07;;
2053;SDS011;1032;52.542;13.440;2022-11-24T12:10:19;37.80;;;28.90;;
2053;SDS011;1032;52.542;13.440;2022-11-24T12:13:05;38.03;;;29.27;;
2053;SDS011;1032;52.542;13.440;2022-11-24T12:15:57;46.50;;;31.07;;
2053;SDS011;1032;52.542;13.440;2022-11-24T12:18:34;46.70;;;30.93;;
2053;SDS011;1032;52.542;13.440;2022-11-24T12:21:09;46.37;;;31.97;;
2053;SDS011;1032;52.542;13.440;2022-11-24T12:23:44;38.43;;;30.43;;
2053;SDS011;1032;52.542;13.440;2022-11-24T12:26:21;39.57;;;29.43;;
2053;SDS011;1032;52.542;13.440;2022-11-24T12:28:58;38.90;;;31.60;;
2053;SDS011;1032;52.542;13.440;2022-11-24T12:31:34;40.30;;;29.60;;
2053;SDS011;1032;52.542;13.440;2022-11-24T12:34:25;41.22;;;32.40;;
2053;SDS011;1032;52.542;13.440;2022-11-24T12:37:12;39.67;;;31.47;;
2053;SDS011;1032;52.542;13.440;2022-11-24T12:40:00;42.53;;;29.77;;
2053;SDS011;1032;52.542;13.440;2022-11-24T12:42:33;43.60;;;31.03;;
2053;SDS011;1032;52.542;13.440;2022-11-24T12:45:11;41.03;;;29.60;;
2053;SDS011;1032;52.542;13.440;2022-11-24T12:47:56;43.47;;;30.97;;
2053;SDS011;1032;52.542;13.440;2022-11-24T12:50:43;38.40;;;30.17;;
2053;SDS011;1032;52.542;13.440;2022-11-24T12:53:11;43.53;;;31.38;;
2053;SDS011;1032;52.542;13.440;2022-11-24T12:55:40;37.55;;;32.80;;
2053;SDS011;1032;52.542;13.440;2022-11-24T12:58:09;40.70;;;31.43;;
2053;SDS011;1032;52.542;13.440;2022-11-24T13:00:45;38.67;;;29.73;;
2053;SDS011;1032;52.542;13.440;2022-11-24T13:03:23;42.23;;;33.37;;
2053;SDS011;1032;52.542;13.440;2022-11-24T13:05:58;41.90;;;32.95;;
2053;SDS011;1032;52.542;13.440;2022-11-24T13:08:27;38.90;;;32.00;;
2053;SDS011;1032;52.542;13.440;2022-11-24T13:11:05;37.33;;;29.37;;
2053;SDS011;1032;52.542;13.440;2022-11-24T13:13:55;43.20;;;28.50;;
2053;SDS011;1032;52.542;13.440;2022-11-24T13:16:24;37.63;;;28.50;;
2053;SDS011;1032;52.542;13.440;2022-11-24T13:18:52;36.73;;;29.07;;
2053;SDS011;1032;52.542;13.440;2022-11-24T13:24:20;39.53;;;27.00;;
2053;SDS011;1032;52.542;13.440;2022-11-24T13:26:52;40.33;;;30.10;;
2053;SDS011;1032;52.542;13.440;2022-11-24T13:29:32;44.10;;;30.30;;
2053;SDS011;1032;52.542;13.440;2022-11-24T13:35:17;38.30;;;27.20;;
2053;SDS011;1032;52.542;13.440;2022-11-24T13:37:45;35.87;;;28.20;;
2053;SDS011;1032;52.542;13.440;2022-11-24T13:43:19;36.53;;;28.27;;
2053;SDS011;1032;52.542;13.440;2022-11-24T13:45:47;38.03;;;29.33;;
2053;SDS011;1032;52.542;13.440;2022-11-24T13:51:23;40.20;;;29.90;;
2053;SDS011;1032;52.542;13.440;2022-11-24T13:53:50;37.73;;;28.93;;
2053;SDS011;1032;52.542;13.440;2022-11-24T13:56:24;40.80;;;29.87;;
2053;SDS011;1032;52.542;13.440;2022-11-24T13:58:55;39.57;;;29.63;;
2053;SDS011;1032;52.542;13.440;2022-11-24T14:01:27;38.87;;;29.33;;
2053;SDS011;1032;52.542;13.440;2022-11-24T14:03:57;36.57;;;29.33;;
2053;SDS011;1032;52.542;13.440;2022-11-24T14:06:29;38.33;;;28.20;;
2053;SDS011;1032;52.542;13.440;2022-11-24T14:08:59;35.43;;;28.87;;
2053;SDS011;1032;52.542;13.440;2022-11-24T14:11:32;39.80;;;29.30;;
2053;SDS011;1032;52.542;13.440;2022-11-24T14:14:02;41.67;;;29.13;;
2053;SDS011;1032;52.542;13.440;2022-11-24T14:16:38;43.00;;;30.50;;
2053;SDS011;1032;52.542;13.440;2022-11-24T14:19:08;40.87;;;32.37;;
2053;SDS011;1032;52.542;13.440;2022-11-24T14:21:37;41.93;;;30.53;;
2053;SDS011;1032;52.542;13.440;2022-11-24T14:24:07;38.40;;;28.43;;
2053;SDS011;1032;52.542;13.440;2022-11-24T14:26:37;39.17;;;28.47;;
2053;SDS011;1032;52.542;13.440;2022-11-24T14:29:06;38.83;;;30.77;;
2053;SDS011;1032;52.542;13.440;2022-11-24T14:31:39;41.17;;;30.67;;
2053;SDS011;1032;52.542;13.440;2022-11-24T14:34:14;44.47;;;30.50;;
2053;SDS011;1032;52.542;13.440;2022-11-24T14:36:43;45.70;;;29.70;;
2053;SDS011;1032;52.542;13.440;2022-11-24T14:39:10;46.63;;;32.23;;
2053;SDS011;1032;52.542;13.440;2022-11-24T14:41:37;45.00;;;29.30;;
2053;SDS011;1032;52.542;13.440;2022-11-24T14:44:04;37.90;;;29.20;;
2053;SDS011;1032;52.542;13.440;2022-11-24T14:46:37;41.13;;;30.20;;
2053;SDS011;1032;52.542;13.440;2022-11-24T14:49:04;39.50;;;29.77;;
2053;SDS011;1032;52.542;13.440;2022-11-24T14:51:32;38.67;;;28.83;;
2053;SDS011;1032;52.542;13.440;2022-11-24T14:54:02;41.43;;;31.83;;
2053;SDS011;1032;52.542;13.440;2022-11-24T14:56:30;45.23;;;32.10;;
2053;SDS011;1032;52.542;13.440;2022-11-24T14:58:59;41.97;;;31.03;;
2053;SDS011;1032;52.542;13.440;2022-11-24T15:01:28;41.30;;;30.70;;
2053;SDS011;1032;52.542;13.440;2022-11-24T15:04:12;43.90;;;32.93;;
2053;SDS011;1032;52.542;13.440;2022-11-24T15:06:40;44.60;;;32.80;;